createdAt,value
2022-12-03T00:00:13.637Z,0.00
2022-12-03T00:01:13.409Z,0.00
2022-12-03T00:02:13.524Z,0.00
2022-12-03T00:03:13.465Z,0.00
2022-12-03T00:04:13.259Z,0.00
2022-12-03T00:05:13.215Z,0.00
2022-12-03T00:06:13.175Z,0.00
2022-12-03T00:07:13.138Z,0.00
2022-12-03T00:08:13.171Z,0.00
2022-12-03T00:09:13.031Z,0.00
2022-12-03T00:10:12.988Z,0.00
2022-12-03T00:11:12.938Z,0.00
2022-12-03T00:12:12.919Z,0.00
2022-12-03T00:13:12.852Z,0.00
2022-12-03T00:14:12.806Z,0.00
2022-12-03T00:15:12.754Z,0.00
2022-12-03T00:16:12.742Z,0.00
2022-12-03T00:17:12.662Z,0.00
2022-12-03T00:18:12.634Z,0.00
2022-12-03T00:19:12.577Z,0.00
2022-12-03T00:20:12.547Z,0.00
2022-12-03T00:21:12.482Z,0.00
2022-12-03T00:22:12.929Z,0.00
2022-12-03T00:23:12.388Z,0.00
2022-12-03T00:24:12.344Z,0.00
2022-12-03T00:25:12.299Z,0.00
2022-12-03T00:26:12.269Z,0.00
2022-12-03T00:27:12.214Z,0.00
2022-12-03T00:28:12.173Z,0.00
2022-12-03T00:29:12.116Z,0.00
2022-12-03T00:30:12.076Z,0.00
2022-12-03T00:31:12.077Z,0.00
2022-12-03T00:32:11.998Z,0.00
2022-12-03T00:33:11.931Z,0.00
2022-12-03T00:34:11.888Z,0.00
2022-12-03T00:35:11.841Z,0.00
2022-12-03T00:36:11.799Z,0.00
2022-12-03T00:37:11.752Z,0.00
2022-12-03T00:38:11.732Z,0.00
2022-12-03T00:39:11.661Z,0.00
2022-12-03T00:40:11.625Z,0.00
2022-12-03T00:41:11.575Z,0.00
2022-12-03T00:42:11.529Z,0.00
2022-12-03T00:43:11.479Z,0.00
2022-12-03T00:44:11.441Z,0.00
2022-12-03T00:45:11.385Z,0.00
2022-12-03T00:46:11.428Z,0.00
2022-12-03T00:47:11.356Z,0.00
2022-12-03T00:48:11.244Z,0.00
2022-12-03T00:49:11.222Z,0.00
2022-12-03T00:50:11.156Z,0.00
2022-12-03T00:51:11.112Z,0.00
2022-12-03T00:52:11.065Z,0.00
2022-12-03T00:53:11.023Z,0.00
2022-12-03T00:54:10.974Z,0.00
2022-12-03T00:55:10.944Z,0.00
2022-12-03T00:56:10.885Z,0.00
2022-12-03T00:57:10.846Z,0.00
2022-12-03T00:58:10.787Z,0.00
2022-12-03T00:59:10.752Z,0.00
2022-12-03T01:00:10.705Z,0.00
2022-12-03T01:01:10.669Z,0.00
2022-12-03T01:02:10.689Z,0.00
2022-12-03T01:03:10.568Z,0.00
2022-12-03T01:04:10.534Z,0.00
2022-12-03T01:05:10.562Z,0.00
2022-12-03T01:06:10.425Z,0.00
2022-12-03T01:07:10.395Z,0.00
2022-12-03T01:08:10.381Z,0.00
2022-12-03T01:09:10.291Z,0.00
2022-12-03T01:10:10.242Z,0.00
2022-12-03T01:11:10.209Z,0.00
2022-12-03T01:12:10.152Z,0.00
2022-12-03T01:13:10.126Z,0.00
2022-12-03T01:14:10.074Z,0.00
2022-12-03T01:15:10.021Z,0.00
2022-12-03T01:16:10.007Z,0.00
2022-12-03T01:17:09.926Z,0.00
2022-12-03T01:18:09.878Z,0.00
2022-12-03T01:19:09.835Z,0.00
2022-12-03T01:20:09.826Z,0.00
2022-12-03T01:21:09.748Z,0.00
2022-12-03T01:22:09.697Z,0.00
2022-12-03T01:23:09.653Z,0.00
2022-12-03T01:24:09.606Z,0.00
2022-12-03T01:25:09.563Z,0.00
2022-12-03T01:26:09.527Z,0.00
2022-12-03T01:27:09.467Z,0.00
2022-12-03T01:28:09.421Z,0.00
2022-12-03T01:29:09.382Z,0.00
2022-12-03T01:30:09.331Z,0.00
2022-12-03T01:31:09.348Z,0.00
2022-12-03T01:32:09.243Z,0.00
2022-12-03T01:33:09.204Z,0.00
2022-12-03T01:34:09.151Z,0.00
2022-12-03T01:35:09.110Z,0.00
2022-12-03T01:36:09.057Z,0.00
2022-12-03T01:37:09.023Z,0.00
2022-12-03T01:38:08.968Z,0.00
2022-12-03T01:39:08.926Z,0.00
2022-12-03T01:40:08.875Z,0.00
2022-12-03T01:41:11.937Z,0.00
2022-12-03T01:42:08.786Z,0.00
2022-12-03T01:43:08.755Z,0.00
2022-12-03T01:44:17.949Z,0.00
2022-12-03T01:45:08.661Z,0.00
2022-12-03T01:46:08.637Z,0.00
2022-12-03T01:47:08.643Z,0.00
2022-12-03T01:48:08.544Z,0.00
2022-12-03T01:49:08.470Z,0.00
2022-12-03T01:50:08.421Z,0.00
2022-12-03T01:51:08.376Z,0.00
2022-12-03T01:52:08.331Z,0.00
2022-12-03T01:53:08.286Z,0.00
2022-12-03T01:54:08.250Z,0.00
2022-12-03T01:55:08.198Z,0.00
2022-12-03T01:56:08.160Z,0.00
2022-12-03T01:57:08.103Z,0.00
2022-12-03T01:58:08.057Z,0.00
2022-12-03T01:59:08.011Z,0.00
2022-12-03T02:00:07.967Z,0.00
2022-12-03T02:01:08.478Z,0.00
2022-12-03T02:02:08.510Z,0.00
2022-12-03T02:03:07.831Z,0.00
2022-12-03T02:04:07.852Z,0.00
2022-12-03T02:05:07.799Z,0.00
2022-12-03T02:06:07.696Z,0.00
2022-12-03T02:07:07.661Z,0.00
2022-12-03T02:08:08.085Z,0.00
2022-12-03T02:09:07.557Z,0.00
2022-12-03T02:10:07.514Z,0.00
2022-12-03T02:11:07.479Z,0.00
2022-12-03T02:12:07.421Z,0.00
2022-12-03T02:13:07.382Z,0.00
2022-12-03T02:14:07.331Z,0.00
2022-12-03T02:15:07.292Z,0.00
2022-12-03T02:16:07.278Z,0.00
2022-12-03T02:17:07.989Z,0.00
2022-12-03T02:18:08.227Z,0.00
2022-12-03T02:19:07.105Z,0.00
2022-12-03T02:20:07.057Z,0.00
2022-12-03T02:21:07.047Z,0.00
2022-12-03T02:22:06.964Z,0.00
2022-12-03T02:23:06.925Z,0.00
2022-12-03T02:24:06.880Z,0.00
2022-12-03T02:25:06.837Z,0.00
2022-12-03T02:26:06.802Z,0.00
2022-12-03T02:27:06.753Z,0.00
2022-12-03T02:28:06.689Z,0.00
2022-12-03T02:29:06.649Z,0.00
2022-12-03T02:30:06.602Z,0.00
2022-12-03T02:31:06.621Z,0.00
2022-12-03T02:32:06.508Z,0.00
2022-12-03T02:33:06.480Z,0.00
2022-12-03T02:34:06.416Z,0.00
2022-12-03T02:35:06.374Z,0.00
2022-12-03T02:36:06.400Z,0.00
2022-12-03T02:37:06.287Z,0.00
2022-12-03T02:38:06.237Z,0.00
2022-12-03T02:39:06.207Z,0.00
2022-12-03T02:40:06.147Z,0.00
2022-12-03T02:41:06.100Z,0.00
2022-12-03T02:42:06.054Z,0.00
2022-12-03T02:43:06.026Z,0.00
2022-12-03T02:44:05.961Z,0.00
2022-12-03T02:45:06.050Z,0.00
2022-12-03T02:46:06.466Z,0.00
2022-12-03T02:47:05.899Z,0.00
2022-12-03T02:48:05.900Z,0.00
2022-12-03T02:49:05.734Z,0.00
2022-12-03T02:50:05.695Z,0.00
2022-12-03T02:51:05.647Z,0.00
2022-12-03T02:52:05.597Z,0.00
2022-12-03T02:53:05.563Z,0.00
2022-12-03T02:54:05.520Z,0.00
2022-12-03T02:55:05.464Z,0.00
2022-12-03T02:56:05.414Z,0.00
2022-12-03T02:57:05.371Z,0.00
2022-12-03T02:58:05.327Z,0.00
2022-12-03T02:59:05.291Z,0.00
2022-12-03T03:00:05.233Z,0.00
2022-12-03T03:01:05.286Z,0.00
2022-12-03T03:02:05.169Z,0.00
2022-12-03T03:03:05.109Z,0.00
2022-12-03T03:04:05.066Z,0.00
2022-12-03T03:05:05.007Z,0.00
2022-12-03T03:06:04.958Z,0.00
2022-12-03T03:07:04.918Z,0.00
2022-12-03T03:08:04.905Z,0.00
2022-12-03T03:09:04.821Z,0.00
2022-12-03T03:10:04.797Z,0.00
2022-12-03T03:11:04.732Z,0.00
2022-12-03T03:12:04.688Z,0.00
2022-12-03T03:13:04.647Z,0.00
2022-12-03T03:14:04.595Z,0.00
2022-12-03T03:15:04.549Z,0.00
2022-12-03T03:16:04.587Z,0.00
2022-12-03T03:17:04.461Z,0.00
2022-12-03T03:18:04.415Z,0.00
2022-12-03T03:19:04.370Z,0.00
2022-12-03T03:20:04.323Z,0.00
2022-12-03T03:21:04.291Z,0.00
2022-12-03T03:22:04.231Z,0.00
2022-12-03T03:23:04.187Z,0.00
2022-12-03T03:24:04.139Z,0.00
2022-12-03T03:25:04.097Z,0.00
2022-12-03T03:26:04.048Z,0.00
2022-12-03T03:27:04.026Z,0.00
2022-12-03T03:28:03.956Z,0.00
2022-12-03T03:29:03.935Z,0.00
2022-12-03T03:30:03.869Z,0.00
2022-12-03T03:31:03.822Z,0.00
2022-12-03T03:32:03.869Z,0.00
2022-12-03T03:33:03.732Z,0.00
2022-12-03T03:34:03.683Z,0.00
2022-12-03T03:35:03.661Z,0.00
2022-12-03T03:36:03.596Z,0.00
2022-12-03T03:37:03.558Z,0.00
2022-12-03T03:38:03.507Z,0.00
2022-12-03T03:39:03.455Z,0.00
2022-12-03T03:40:03.417Z,0.00
2022-12-03T03:41:03.387Z,0.00
2022-12-03T03:42:03.318Z,0.00
2022-12-03T03:43:03.285Z,0.00
2022-12-03T03:44:03.228Z,0.00
2022-12-03T03:45:03.192Z,0.00
2022-12-03T03:46:03.203Z,0.00
2022-12-03T03:47:03.095Z,0.00
2022-12-03T03:48:03.041Z,0.00
2022-12-03T03:49:03.001Z,0.00
2022-12-03T03:50:02.952Z,0.00
2022-12-03T03:51:02.912Z,0.00
2022-12-03T03:52:02.885Z,0.00
2022-12-03T03:53:02.823Z,0.00
2022-12-03T03:54:02.776Z,0.00
2022-12-03T03:55:02.731Z,0.00
2022-12-03T03:56:02.679Z,0.00
2022-12-03T03:57:02.641Z,0.00
2022-12-03T03:58:02.600Z,0.00
2022-12-03T03:59:02.556Z,0.00
2022-12-03T04:00:02.503Z,0.00
2022-12-03T04:01:02.493Z,0.00
2022-12-03T04:02:02.420Z,0.00
2022-12-03T04:03:02.369Z,0.00
2022-12-03T04:04:02.364Z,0.00
2022-12-03T04:05:02.272Z,0.00
2022-12-03T04:06:02.247Z,0.00
2022-12-03T04:07:02.193Z,0.00
2022-12-03T04:08:02.227Z,0.00
2022-12-03T04:09:02.092Z,0.00
2022-12-03T04:10:02.040Z,0.00
2022-12-03T04:11:01.994Z,0.00
2022-12-03T04:12:01.957Z,0.00
2022-12-03T04:13:01.902Z,0.00
2022-12-03T04:14:01.856Z,0.00
2022-12-03T04:15:01.817Z,0.00
2022-12-03T04:16:01.766Z,0.00
2022-12-03T04:17:01.840Z,0.00
2022-12-03T04:18:01.717Z,0.00
2022-12-03T04:19:01.627Z,0.00
2022-12-03T04:20:01.591Z,0.00
2022-12-03T04:21:01.567Z,0.00
2022-12-03T04:22:01.493Z,0.00
2022-12-03T04:23:01.447Z,0.00
2022-12-03T04:24:01.438Z,0.00
2022-12-03T04:25:03.989Z,0.00
2022-12-03T04:26:01.307Z,0.00
2022-12-03T04:27:01.271Z,0.00
2022-12-03T04:28:01.214Z,0.00
2022-12-03T04:29:01.172Z,0.00
2022-12-03T04:30:03.036Z,0.00
2022-12-03T04:31:01.118Z,0.00
2022-12-03T04:32:01.037Z,0.00
2022-12-03T04:33:00.992Z,0.00
2022-12-03T04:34:00.946Z,0.00
2022-12-03T04:35:01.060Z,0.00
2022-12-03T04:36:00.898Z,0.00
2022-12-03T04:37:00.814Z,0.00
2022-12-03T04:38:00.761Z,0.00
2022-12-03T04:39:00.737Z,0.00
2022-12-03T04:40:00.669Z,0.00
2022-12-03T04:41:00.634Z,0.00
2022-12-03T04:42:00.584Z,0.00
2022-12-03T04:43:00.543Z,0.00
2022-12-03T04:44:00.483Z,0.00
2022-12-03T04:45:00.449Z,0.00
2022-12-03T04:46:00.452Z,0.00
2022-12-03T04:47:00.373Z,0.00
2022-12-03T04:48:00.294Z,0.00
2022-12-03T04:49:00.259Z,0.00
2022-12-03T04:50:00.204Z,0.00
2022-12-03T04:51:00.161Z,0.00
2022-12-03T04:52:00.115Z,0.00
2022-12-03T04:53:00.085Z,0.00
2022-12-03T04:54:00.025Z,0.00
2022-12-03T04:54:59.974Z,0.00
2022-12-03T04:56:00.491Z,0.00
2022-12-03T04:57:00.489Z,0.00
2022-12-03T04:57:59.851Z,0.00
2022-12-03T04:58:59.805Z,0.00
2022-12-03T04:59:59.749Z,0.00
2022-12-03T05:00:59.735Z,0.00
2022-12-03T05:02:02.558Z,0.00
2022-12-03T05:02:59.691Z,0.00
2022-12-03T05:04:00.418Z,0.00
2022-12-03T05:04:59.518Z,0.00
2022-12-03T05:05:59.493Z,0.00
2022-12-03T05:06:59.427Z,0.00
2022-12-03T05:07:59.453Z,0.00
2022-12-03T05:08:59.336Z,0.00
2022-12-03T05:10:01.018Z,0.00
2022-12-03T05:11:00.035Z,0.00
2022-12-03T05:11:59.219Z,0.00
2022-12-03T05:12:59.152Z,0.00
2022-12-03T05:13:59.115Z,0.00
2022-12-03T05:15:05.994Z,0.00
2022-12-03T05:15:59.018Z,0.00
2022-12-03T05:16:59.005Z,0.00
2022-12-03T05:18:01.501Z,0.00
2022-12-03T05:18:58.898Z,0.00
2022-12-03T05:19:58.834Z,0.00
2022-12-03T05:21:00.463Z,0.00
2022-12-03T05:22:01.504Z,0.00
2022-12-03T05:23:01.499Z,0.00
2022-12-03T05:23:58.650Z,0.00
2022-12-03T05:24:58.613Z,0.00
2022-12-03T05:26:00.500Z,0.00
2022-12-03T05:26:58.507Z,0.00
2022-12-03T05:27:58.463Z,0.00
2022-12-03T05:28:58.420Z,0.00
2022-12-03T05:29:58.376Z,0.00
2022-12-03T05:30:58.374Z,0.00
2022-12-03T05:31:58.283Z,0.00
2022-12-03T05:32:58.234Z,0.00
2022-12-03T05:33:58.202Z,0.00
2022-12-03T05:34:58.157Z,0.00
2022-12-03T05:35:58.100Z,0.00
2022-12-03T05:36:58.062Z,0.00
2022-12-03T05:37:58.010Z,0.00
2022-12-03T05:38:57.987Z,0.00
2022-12-03T05:39:57.917Z,0.00
2022-12-03T05:40:57.872Z,0.00
2022-12-03T05:41:57.831Z,0.00
2022-12-03T05:42:57.776Z,0.00
2022-12-03T05:43:57.738Z,0.00
2022-12-03T05:44:57.705Z,0.00
2022-12-03T05:45:57.675Z,0.00
2022-12-03T05:46:57.594Z,0.00
2022-12-03T05:47:57.563Z,0.00
2022-12-03T05:48:57.498Z,0.00
2022-12-03T05:49:57.454Z,0.00
2022-12-03T05:50:57.430Z,0.00
2022-12-03T05:51:58.822Z,0.00
2022-12-03T05:52:57.314Z,0.00
2022-12-03T05:53:57.274Z,0.00
2022-12-03T05:54:57.236Z,0.00
2022-12-03T05:55:57.195Z,0.00
2022-12-03T05:56:57.134Z,0.00
2022-12-03T05:57:57.097Z,0.00
2022-12-03T05:58:57.038Z,0.00
2022-12-03T05:59:57.015Z,0.00
2022-12-03T06:00:56.952Z,0.00
2022-12-03T06:01:56.912Z,0.00
2022-12-03T06:02:57.136Z,0.00
2022-12-03T06:03:56.916Z,0.00
2022-12-03T06:04:56.946Z,0.00
2022-12-03T06:05:56.738Z,0.00
2022-12-03T06:06:56.693Z,0.00
2022-12-03T06:07:56.690Z,0.00
2022-12-03T06:08:56.579Z,0.00
2022-12-03T06:09:56.543Z,0.00
2022-12-03T06:10:56.492Z,0.00
2022-12-03T06:11:56.451Z,0.00
2022-12-03T06:12:56.413Z,0.00
2022-12-03T06:13:56.355Z,0.00
2022-12-03T06:14:56.522Z,0.00
2022-12-03T06:15:56.355Z,0.00
2022-12-03T06:16:56.211Z,0.00
2022-12-03T06:17:56.188Z,0.00
2022-12-03T06:18:56.172Z,0.00
2022-12-03T06:19:56.076Z,0.00
2022-12-03T06:20:56.031Z,0.00
2022-12-03T06:21:55.988Z,0.00
2022-12-03T06:22:55.938Z,0.00
2022-12-03T06:23:55.909Z,0.00
2022-12-03T06:24:56.614Z,0.00
2022-12-03T06:25:55.819Z,0.00
2022-12-03T06:26:55.754Z,0.00
2022-12-03T06:27:55.711Z,0.00
2022-12-03T06:28:55.669Z,0.00
2022-12-03T06:29:55.630Z,0.00
2022-12-03T06:30:55.589Z,0.00
2022-12-03T06:31:55.530Z,0.00
2022-12-03T06:32:55.487Z,0.00
2022-12-03T06:33:55.494Z,0.00
2022-12-03T06:34:55.881Z,0.00
2022-12-03T06:35:55.347Z,0.00
2022-12-03T06:36:55.308Z,0.00
2022-12-03T06:37:58.015Z,0.00
2022-12-03T06:38:55.204Z,0.00
2022-12-03T06:39:58.017Z,0.00
2022-12-03T06:40:55.332Z,4.00
2022-12-03T06:41:55.548Z,4.00
2022-12-03T06:42:55.020Z,0.00
2022-12-03T06:43:54.991Z,4.00
2022-12-03T06:44:55.312Z,4.00
2022-12-03T06:45:54.892Z,4.00
2022-12-03T06:46:54.918Z,4.00
2022-12-03T06:47:54.845Z,4.00
2022-12-03T06:48:54.745Z,8.00
2022-12-03T06:49:54.721Z,12.00
2022-12-03T06:50:54.656Z,8.00
2022-12-03T06:51:54.614Z,12.00
2022-12-03T06:52:54.562Z,12.00
2022-12-03T06:53:54.519Z,16.00
2022-12-03T06:54:54.741Z,20.00
2022-12-03T06:55:54.442Z,24.00
2022-12-03T06:56:54.376Z,28.00
2022-12-03T06:57:54.351Z,32.00
2022-12-03T06:58:54.283Z,36.00
2022-12-03T06:59:54.464Z,40.00
2022-12-03T07:00:54.193Z,48.00
2022-12-03T07:01:54.199Z,56.00
2022-12-03T07:02:54.171Z,64.00
2022-12-03T07:03:54.054Z,76.00
2022-12-03T07:04:54.549Z,84.00
2022-12-03T07:05:53.971Z,96.00
2022-12-03T07:06:53.912Z,104.00
2022-12-03T07:07:53.977Z,120.00
2022-12-03T07:08:53.822Z,128.00
2022-12-03T07:09:53.781Z,144.00
2022-12-03T07:10:53.729Z,160.00
2022-12-03T07:11:53.688Z,176.00
2022-12-03T07:12:53.637Z,196.00
2022-12-03T07:13:53.615Z,220.00
2022-12-03T07:14:53.987Z,244.00
2022-12-03T07:15:54.537Z,260.00
2022-12-03T07:16:53.449Z,284.00
2022-12-03T07:17:53.404Z,308.00
2022-12-03T07:18:53.359Z,324.00
2022-12-03T07:19:53.330Z,352.00
2022-12-03T07:20:53.407Z,376.00
2022-12-03T07:21:53.222Z,400.00
2022-12-03T07:22:53.175Z,424.00
2022-12-03T07:23:53.138Z,444.00
2022-12-03T07:24:53.441Z,468.00
2022-12-03T07:25:53.034Z,500.00
2022-12-03T07:26:53.003Z,528.00
2022-12-03T07:27:52.943Z,556.00
2022-12-03T07:28:52.912Z,588.00
2022-12-03T07:29:52.854Z,624.00
2022-12-03T07:30:52.942Z,660.00
2022-12-03T07:31:52.824Z,696.00
2022-12-03T07:32:52.714Z,740.00
2022-12-03T07:33:52.675Z,776.00
2022-12-03T07:34:52.911Z,808.00
2022-12-03T07:35:52.578Z,844.00
2022-12-03T07:36:52.549Z,876.00
2022-12-03T07:37:52.484Z,912.00
2022-12-03T07:38:52.427Z,948.00
2022-12-03T07:39:52.405Z,992.00
2022-12-03T07:40:52.337Z,1040.00
2022-12-03T07:41:52.300Z,1084.00
2022-12-03T07:42:52.254Z,1128.00
2022-12-03T07:43:52.200Z,1172.00
2022-12-03T07:45:02.526Z,1208.00
2022-12-03T07:45:52.106Z,1248.00
2022-12-03T07:46:52.108Z,1288.00
2022-12-03T07:47:52.024Z,1332.00
2022-12-03T07:48:51.971Z,1388.00
2022-12-03T07:49:51.923Z,1448.00
2022-12-03T07:50:51.880Z,1516.00
2022-12-03T07:51:51.827Z,1588.00
2022-12-03T07:52:51.788Z,1664.00
2022-12-03T07:53:51.734Z,1744.00
2022-12-03T07:54:52.152Z,1820.00
2022-12-03T07:55:51.644Z,1900.00
2022-12-03T07:56:54.344Z,1984.00
2022-12-03T07:57:51.549Z,2036.00
2022-12-03T07:58:51.500Z,2136.00
2022-12-03T07:59:51.461Z,2216.00
2022-12-03T08:00:51.470Z,2260.00
2022-12-03T08:01:51.474Z,2276.00
2022-12-03T08:02:51.409Z,2304.00
2022-12-03T08:03:51.271Z,2348.00
2022-12-03T08:04:51.386Z,2388.00
2022-12-03T08:05:51.182Z,2412.00
2022-12-03T08:06:51.167Z,2460.00
2022-12-03T08:07:51.145Z,2524.00
2022-12-03T08:08:51.050Z,2592.00
2022-12-03T08:09:50.994Z,2616.00
2022-12-03T08:10:50.944Z,2592.00
2022-12-03T08:11:50.900Z,2568.00
2022-12-03T08:12:50.852Z,2576.00
2022-12-03T08:13:50.811Z,2616.00
2022-12-03T08:14:51.060Z,2768.00
2022-12-03T08:15:50.715Z,2976.00
2022-12-03T08:16:50.755Z,2788.00
2022-12-03T08:17:50.622Z,2636.00
2022-12-03T08:18:50.575Z,2624.00
2022-12-03T08:19:50.537Z,2620.00
2022-12-03T08:20:50.494Z,2668.00
2022-12-03T08:21:50.447Z,2720.00
2022-12-03T08:22:50.393Z,2792.00
2022-12-03T08:23:50.350Z,2792.00
2022-12-03T08:24:50.300Z,2808.00
2022-12-03T08:25:50.275Z,2876.00
2022-12-03T08:26:50.206Z,3220.00
2022-12-03T08:27:50.162Z,3192.00
2022-12-03T08:28:50.116Z,3576.00
2022-12-03T08:29:50.073Z,3540.00
2022-12-03T08:30:50.041Z,3620.00
2022-12-03T08:31:50.099Z,3544.00
2022-12-03T08:32:49.935Z,3548.00
2022-12-03T08:33:49.892Z,3532.00
2022-12-03T08:34:49.840Z,3564.00
2022-12-03T08:35:49.810Z,3772.00
2022-12-03T08:36:49.765Z,4160.00
2022-12-03T08:37:49.712Z,3932.00
2022-12-03T08:38:49.671Z,3828.00
2022-12-03T08:39:49.618Z,3776.00
2022-12-03T08:40:49.570Z,3676.00
2022-12-03T08:41:49.528Z,3568.00
2022-12-03T08:42:49.479Z,3460.00
2022-12-03T08:43:49.436Z,3312.00
2022-12-03T08:44:49.403Z,3188.00
2022-12-03T08:45:49.431Z,3120.00
2022-12-03T08:46:49.297Z,3124.00
2022-12-03T08:47:49.252Z,3184.00
2022-12-03T08:48:49.809Z,3276.00
2022-12-03T08:49:49.164Z,3364.00
2022-12-03T08:50:49.132Z,3504.00
2022-12-03T08:51:49.089Z,3672.00
2022-12-03T08:52:49.026Z,3832.00
2022-12-03T08:53:48.982Z,3912.00
2022-12-03T08:54:48.943Z,4040.00
2022-12-03T08:55:48.892Z,4256.00
2022-12-03T08:56:48.847Z,4508.00
2022-12-03T08:57:48.806Z,4708.00
2022-12-03T08:58:48.759Z,4744.00
2022-12-03T08:59:48.711Z,4768.00
2022-12-03T09:00:48.769Z,4816.00
2022-12-03T09:01:48.630Z,4740.00
2022-12-03T09:02:48.571Z,4680.00
2022-12-03T09:03:48.579Z,4800.00
2022-12-03T09:04:48.481Z,5624.00
2022-12-03T09:05:48.441Z,6280.00
2022-12-03T09:06:48.391Z,6928.00
2022-12-03T09:07:48.441Z,7056.00
2022-12-03T09:08:48.306Z,7036.00
2022-12-03T09:09:48.265Z,6992.00
2022-12-03T09:10:48.217Z,6796.00
2022-12-03T09:11:48.168Z,5852.00
2022-12-03T09:12:48.125Z,5692.00
2022-12-03T09:13:48.088Z,6644.00
2022-12-03T09:14:48.048Z,6868.00
2022-12-03T09:15:47.994Z,6992.00
2022-12-03T09:16:48.082Z,7292.00
2022-12-03T09:17:47.908Z,6512.00
2022-12-03T09:18:47.865Z,7012.00
2022-12-03T09:19:47.819Z,7296.00
2022-12-03T09:20:47.793Z,5916.00
2022-12-03T09:21:47.733Z,5552.00
2022-12-03T09:22:47.698Z,5460.00
2022-12-03T09:23:47.646Z,5380.00
2022-12-03T09:24:47.604Z,5236.00
2022-12-03T09:25:47.561Z,5208.00
2022-12-03T09:26:47.519Z,5260.00
2022-12-03T09:27:47.483Z,5308.00
2022-12-03T09:28:47.435Z,5300.00
2022-12-03T09:29:47.389Z,5376.00
2022-12-03T09:30:47.349Z,5504.00
2022-12-03T09:31:47.394Z,5700.00
2022-12-03T09:32:47.277Z,5900.00
2022-12-03T09:33:47.220Z,6076.00
2022-12-03T09:34:47.199Z,6176.00
2022-12-03T09:35:47.131Z,6204.00
2022-12-03T09:36:47.097Z,6192.00
2022-12-03T09:37:47.042Z,6188.00
2022-12-03T09:38:48.237Z,6180.00
2022-12-03T09:39:46.958Z,6140.00
2022-12-03T09:40:46.927Z,6088.00
2022-12-03T09:41:46.870Z,5988.00
2022-12-03T09:42:46.839Z,5896.00
2022-12-03T09:44:03.904Z,5816.00
2022-12-03T09:44:46.758Z,5764.00
2022-12-03T09:45:46.899Z,5720.00
2022-12-03T09:46:46.673Z,5688.00
2022-12-03T09:47:46.615Z,5652.00
2022-12-03T09:48:46.571Z,5600.00
2022-12-03T09:49:46.523Z,5532.00
2022-12-03T09:50:46.479Z,5480.00
2022-12-03T09:51:46.436Z,5444.00
2022-12-03T09:52:46.407Z,5420.00
2022-12-03T09:53:46.350Z,5384.00
2022-12-03T09:54:47.645Z,5360.00
2022-12-03T09:55:46.257Z,5332.00
2022-12-03T09:56:46.225Z,5368.00
2022-12-03T09:57:46.170Z,5440.00
2022-12-03T09:58:46.130Z,5552.00
2022-12-03T09:59:46.089Z,5656.00
2022-12-03T10:00:46.043Z,5692.00
2022-12-03T10:01:46.112Z,5684.00
2022-12-03T10:02:45.968Z,5672.00
2022-12-03T10:03:45.907Z,5688.00
2022-12-03T10:04:45.899Z,5684.00
2022-12-03T10:05:48.167Z,5660.00
2022-12-03T10:06:46.463Z,5640.00
2022-12-03T10:07:45.781Z,5644.00
2022-12-03T10:08:45.700Z,5652.00
2022-12-03T10:09:45.645Z,5636.00
2022-12-03T10:10:45.598Z,5584.00
2022-12-03T10:11:45.573Z,5456.00
2022-12-03T10:12:45.509Z,5288.00
2022-12-03T10:13:45.469Z,5116.00
2022-12-03T10:14:45.444Z,5092.00
2022-12-03T10:15:45.373Z,5216.00
2022-12-03T10:16:45.377Z,5352.00
2022-12-03T10:17:45.286Z,5356.00
2022-12-03T10:18:45.256Z,5392.00
2022-12-03T10:19:45.195Z,5452.00
2022-12-03T10:20:45.165Z,5444.00
2022-12-03T10:21:45.107Z,5380.00
2022-12-03T10:22:45.068Z,5368.00
2022-12-03T10:23:45.887Z,5484.00
2022-12-03T10:24:45.172Z,5680.00
2022-12-03T10:25:44.929Z,5900.00
2022-12-03T10:26:44.899Z,6052.00
2022-12-03T10:27:44.839Z,6096.00
2022-12-03T10:28:44.796Z,6104.00
2022-12-03T10:29:44.750Z,6088.00
2022-12-03T10:30:44.739Z,6040.00
2022-12-03T10:31:44.659Z,6056.00
2022-12-03T10:32:44.632Z,6220.00
2022-12-03T10:33:44.573Z,6468.00
2022-12-03T10:34:44.530Z,6632.00
2022-12-03T10:35:44.483Z,6732.00
2022-12-03T10:36:44.444Z,6852.00
2022-12-03T10:37:44.405Z,7052.00
2022-12-03T10:38:44.349Z,7256.00
2022-12-03T10:39:44.304Z,7340.00
2022-12-03T10:40:44.260Z,7364.00
2022-12-03T10:41:44.216Z,7360.00
2022-12-03T10:42:44.172Z,7312.00
2022-12-03T10:43:44.135Z,7288.00
2022-12-03T10:44:44.083Z,7276.00
2022-12-03T10:45:44.158Z,7224.00
2022-12-03T10:46:44.150Z,7248.00
2022-12-03T10:47:44.032Z,7444.00
2022-12-03T10:48:43.987Z,7812.00
2022-12-03T10:49:43.872Z,8004.00
2022-12-03T10:50:43.817Z,8148.00
2022-12-03T10:51:43.779Z,8428.00
2022-12-03T10:52:43.732Z,8588.00
2022-12-03T10:53:43.697Z,8412.00
2022-12-03T10:54:43.644Z,8204.00
2022-12-03T10:55:43.595Z,8224.00
2022-12-03T10:56:43.556Z,8456.00
2022-12-03T10:57:45.901Z,8868.00
2022-12-03T10:58:43.467Z,9312.00
2022-12-03T10:59:43.434Z,9616.00
2022-12-03T11:00:43.398Z,9848.00
2022-12-03T11:01:43.377Z,10116.00
2022-12-03T11:02:43.289Z,10216.00
2022-12-03T11:03:43.291Z,10100.00
2022-12-03T11:04:43.205Z,9848.00
2022-12-03T11:05:43.171Z,9140.00
2022-12-03T11:06:43.119Z,9016.00
2022-12-03T11:07:43.092Z,8664.00
2022-12-03T11:08:43.031Z,8252.00
2022-12-03T11:09:42.985Z,7748.00
2022-12-03T11:10:42.942Z,7356.00
2022-12-03T11:11:42.913Z,7004.00
2022-12-03T11:12:42.866Z,6856.00
2022-12-03T11:13:42.821Z,6800.00
2022-12-03T11:14:42.774Z,6740.00
2022-12-03T11:15:42.753Z,6496.00
2022-12-03T11:16:42.684Z,6304.00
2022-12-03T11:17:42.656Z,6200.00
2022-12-03T11:18:42.609Z,6096.00
2022-12-03T11:19:42.556Z,6072.00
2022-12-03T11:20:42.515Z,6088.00
2022-12-03T11:21:42.472Z,6020.00
2022-12-03T11:22:42.426Z,5876.00
2022-12-03T11:23:42.385Z,5860.00
2022-12-03T11:24:42.358Z,5800.00
2022-12-03T11:25:42.296Z,5780.00
2022-12-03T11:26:42.256Z,5696.00
2022-12-03T11:27:42.208Z,5600.00
2022-12-03T11:28:42.168Z,5544.00
2022-12-03T11:29:42.125Z,5488.00
2022-12-03T11:30:42.138Z,5452.00
2022-12-03T11:31:42.164Z,5432.00
2022-12-03T11:32:41.991Z,5432.00
2022-12-03T11:33:41.945Z,5456.00
2022-12-03T11:34:41.909Z,5496.00
2022-12-03T11:35:41.859Z,5548.00
2022-12-03T11:37:00.687Z,5588.00
2022-12-03T11:37:41.772Z,5596.00
2022-12-03T11:38:45.009Z,5548.00
2022-12-03T11:39:41.683Z,5444.00
2022-12-03T11:40:41.659Z,5340.00
2022-12-03T11:41:41.598Z,5232.00
2022-12-03T11:42:41.569Z,5136.00
2022-12-03T11:43:41.510Z,5056.00
2022-12-03T11:44:41.468Z,4972.00
2022-12-03T11:45:41.425Z,4888.00
2022-12-03T11:46:41.453Z,4824.00
2022-12-03T11:47:41.331Z,4784.00
2022-12-03T11:48:41.291Z,4776.00
2022-12-03T11:49:41.245Z,4800.00
2022-12-03T11:50:41.206Z,4832.00
2022-12-03T11:51:41.156Z,4856.00
2022-12-03T11:52:41.128Z,4876.00
2022-12-03T11:53:41.097Z,4880.00
2022-12-03T11:54:41.026Z,4876.00
2022-12-03T11:55:40.976Z,4864.00
2022-12-03T11:56:40.938Z,4812.00
2022-12-03T11:57:40.888Z,4732.00
2022-12-03T11:58:40.860Z,4636.00
2022-12-03T11:59:40.800Z,4544.00
2022-12-03T12:00:40.759Z,4452.00
2022-12-03T12:01:40.711Z,4352.00
2022-12-03T12:02:40.721Z,4256.00
2022-12-03T12:03:40.723Z,4176.00
2022-12-03T12:04:40.641Z,4116.00
2022-12-03T12:05:40.533Z,4068.00
2022-12-03T12:06:40.489Z,4028.00
2022-12-03T12:07:40.574Z,3996.00
2022-12-03T12:08:40.403Z,3976.00
2022-12-03T12:09:40.371Z,3964.00
2022-12-03T12:10:40.313Z,3964.00
2022-12-03T12:11:40.268Z,3976.00
2022-12-03T12:12:40.226Z,3988.00
2022-12-03T12:13:40.176Z,3992.00
2022-12-03T12:14:40.135Z,3988.00
2022-12-03T12:15:40.112Z,3952.00
2022-12-03T12:16:40.154Z,3888.00
2022-12-03T12:17:40.001Z,3864.00
2022-12-03T12:18:39.977Z,3872.00
2022-12-03T12:19:39.949Z,3924.00
2022-12-03T12:20:39.871Z,3996.00
2022-12-03T12:21:39.831Z,4080.00
2022-12-03T12:22:39.778Z,4180.00
2022-12-03T12:23:39.734Z,4212.00
2022-12-03T12:24:39.695Z,4228.00
2022-12-03T12:25:39.642Z,4228.00
2022-12-03T12:26:39.601Z,4272.00
2022-12-03T12:27:39.567Z,4248.00
2022-12-03T12:28:39.509Z,4176.00
2022-12-03T12:29:39.462Z,4088.00
2022-12-03T12:30:39.420Z,4016.00
2022-12-03T12:31:39.433Z,3944.00
2022-12-03T12:32:39.347Z,3892.00
2022-12-03T12:33:39.286Z,3820.00
2022-12-03T12:34:39.257Z,3744.00
2022-12-03T12:35:39.209Z,3680.00
2022-12-03T12:36:39.155Z,3608.00
2022-12-03T12:37:39.107Z,3528.00
2022-12-03T12:38:39.073Z,3476.00
2022-12-03T12:39:39.016Z,3440.00
2022-12-03T12:40:38.976Z,3396.00
2022-12-03T12:41:38.928Z,3352.00
2022-12-03T12:42:38.880Z,3320.00
2022-12-03T12:43:38.843Z,3296.00
2022-12-03T12:44:38.810Z,3284.00